Time;durP1;ratioP1;P1;durP2;ratioP2;P2;SDS_P1;SDS_P2;PMS_P1;PMS_P2;Temp;Humidity;BMP_temperature;BMP_pressure;BME280_temperature;BME280_humidity;BME280_pressure;Samples;Min_cycle;Max_cycle;Signal;HPM_P1;HPM_P2
2023/01/11 04:57:33;;;;;;;7.35;4.28;;;;;;;7.20;83.72;100753.31;5600895;31;255936;-59
2023/01/11 05:00:36;;;;;;;7.85;4.45;;;;;;;7.20;83.72;100753.31;5583522;31;32973;-60
2023/01/11 05:03:38;;;;;;;6.85;4.68;;;;;;;6.72;72.60;100760.16;5581060;31;34130;-59
2023/01/11 05:06:41;;;;;;;6.43;4.05;;;;;;;6.71;72.77;100771.84;5563733;32;34295;-60
2023/01/11 05:09:43;;;;;;;5.85;3.95;;;;;;;6.88;74.31;100776.34;5564031;32;33561;-60
2023/01/11 05:12:46;;;;;;;8.73;4.90;;;;;;;6.98;81.45;100773.81;5563819;32;33573;-60
2023/01/11 05:15:48;;;;;;;6.85;4.55;;;;;;;7.19;79.27;100766.91;5563667;32;34307;-59
2023/01/11 05:18:52;;;;;;;7.60;4.40;;;;;;;6.81;70.60;100760.53;5563975;32;33487;-60
2023/01/11 05:21:55;;;;;;;6.22;4.30;;;;;;;6.74;70.57;100754.56;5564033;32;34216;-60
2023/01/11 05:24:57;;;;;;;7.68;4.68;;;;;;;6.63;71.23;100764.28;5563664;32;33310;-60
2023/01/11 05:27:59;;;;;;;6.53;4.55;;;;;;;6.89;88.85;100772.59;5563269;32;34125;-60
2023/01/11 05:31:02;;;;;;;7.10;4.55;;;;;;;7.26;76.01;100789.66;5563882;32;35256;-60
2023/01/11 05:34:05;;;;;;;9.68;4.97;;;;;;;6.91;72.97;100781.97;5563637;32;33751;-60
2023/01/11 05:37:08;;;;;;;7.47;4.32;;;;;;;6.73;80.31;100777.75;5563612;32;33778;-60
2023/01/11 05:40:10;;;;;;;8.95;4.62;;;;;;;6.59;81.19;100763.16;5563765;32;34152;-59
2023/01/11 05:43:13;;;;;;;8.43;4.75;;;;;;;6.55;74.58;100756.69;5563604;32;34329;-60
2023/01/11 05:46:15;;;;;;;7.40;4.85;;;;;;;6.44;83.02;100763.72;5563554;32;33637;-60
2023/01/11 05:49:17;;;;;;;6.95;4.97;;;;;;;6.42;73.53;100768.47;5563202;32;34271;-60
2023/01/11 05:52:22;;;;;;;11.88;7.72;;;;;;;6.47;73.16;100762.44;5563455;32;33617;-59
2023/01/11 05:55:27;;;;;;;14.65;8.70;;;;;;;6.51;73.68;100756.38;5563222;32;33695;-59
2023/01/11 05:58:29;;;;;;;8.85;6.53;;;;;;;6.44;74.57;100761.06;5563216;32;34399;-59
2023/01/11 06:01:34;;;;;;;8.27;5.53;;;;;;;6.31;78.43;100758.72;5563433;32;34024;-59
2023/01/11 06:04:38;;;;;;;7.72;5.53;;;;;;;6.10;74.56;100754.94;5562952;32;33741;-59
2023/01/11 06:07:44;;;;;;;10.93;5.65;;;;;;;6.07;74.40;100742.09;5572779;32;34400;-60
2023/01/11 06:10:55;;;;;;;9.57;6.35;;;;;;;5.90;81.17;100747.38;5558357;32;33586;-59
2023/01/11 06:13:58;;;;;;;9.82;6.68;;;;;;;5.84;75.07;100746.47;5568945;32;33688;-59
2023/01/11 06:17:04;;;;;;;9.60;6.12;;;;;;;5.78;76.15;100763.38;5567849;32;33812;-59
2023/01/11 06:20:08;;;;;;;11.00;6.97;;;;;;;5.77;79.16;100763.63;5569232;32;34405;-59
2023/01/11 06:23:11;;;;;;;13.48;6.82;;;;;;;5.91;75.29;100754.31;5569374;32;33726;-60
2023/01/11 06:26:16;;;;;;;12.10;6.62;;;;;;;5.82;75.76;100756.53;5568646;32;33272;-59
2023/01/11 06:29:19;;;;;;;10.48;6.80;;;;;;;5.77;78.49;100760.97;5565186;32;33742;-59
2023/01/11 06:32:21;;;;;;;8.88;6.70;;;;;;;5.65;75.62;100756.50;5568945;32;33353;-58
2023/01/11 06:35:23;;;;;;;9.38;6.50;;;;;;;5.78;77.31;100762.59;5568870;32;33630;-59
2023/01/11 06:38:26;;;;;;;12.98;7.60;;;;;;;5.67;76.73;100758.13;5567360;32;33780;-58
2023/01/11 06:41:30;;;;;;;13.85;7.22;;;;;;;5.75;76.70;100765.72;5564841;32;30894;-59
2023/01/11 06:44:32;;;;;;;15.00;7.20;;;;;;;5.70;85.76;100773.63;5568695;32;34035;-59
2023/01/11 06:47:35;;;;;;;11.23;7.00;;;;;;;5.62;79.29;100775.59;5567767;32;31959;-59
2023/01/11 06:50:37;;;;;;;11.82;7.03;;;;;;;5.64;85.76;100783.34;5568073;32;34264;-60
2023/01/11 06:53:41;;;;;;;11.35;7.45;;;;;;;5.47;84.57;100791.28;5567517;32;33652;-59
2023/01/11 06:56:43;;;;;;;13.80;8.30;;;;;;;5.46;89.15;100789.63;5567201;32;33582;-59
2023/01/11 06:59:46;;;;;;;14.23;8.00;;;;;;;5.52;84.13;100801.19;5568422;32;33565;-59
2023/01/11 07:02:49;;;;;;;11.15;7.95;;;;;;;5.79;76.06;100804.09;5568214;32;33842;-60
2023/01/11 07:05:53;;;;;;;13.20;7.93;;;;;;;5.58;80.75;100806.37;5567113;31;33679;-59
2023/01/11 07:08:55;;;;;;;12.82;7.90;;;;;;;5.43;78.95;100811.41;5566500;32;34074;-59
2023/01/11 07:11:57;;;;;;;15.75;8.18;;;;;;;5.37;79.38;100815.00;5567550;32;34288;-59
2023/01/11 07:15:00;;;;;;;14.52;8.43;;;;;;;5.39;90.71;100826.19;5567724;32;33710;-59
2023/01/11 07:18:03;;;;;;;14.48;9.93;;;;;;;5.34;82.21;100842.06;5567062;32;34106;-60
2023/01/11 07:21:06;;;;;;;11.07;7.70;;;;;;;5.39;80.02;100847.47;5567061;32;33827;-60
2023/01/11 07:24:08;;;;;;;12.50;7.97;;;;;;;5.52;78.75;100855.19;5567878;32;34056;-60
2023/01/11 07:27:10;;;;;;;11.82;8.18;;;;;;;5.50;78.49;100848.50;5566306;32;33369;-59
2023/01/11 07:30:13;;;;;;;14.80;8.15;;;;;;;5.49;79.13;100855.66;5561307;32;33541;-60
2023/01/11 07:33:15;;;;;;;12.20;8.00;;;;;;;5.43;83.43;100861.94;5567490;32;33672;-59
2023/01/11 07:36:17;;;;;;;14.82;8.88;;;;;;;5.36;84.82;100867.37;5567247;32;33783;-59
2023/01/11 07:39:20;;;;;;;11.50;8.30;;;;;;;5.69;79.08;100873.06;5567026;32;34422;-59
2023/01/11 07:45:56;;;;;;;15.93;10.35;;;;;;;5.72;78.48;100856.63;5567106;32;33633;-59
2023/01/11 07:48:59;;;;;;;16.30;9.50;;;;;;;5.91;76.43;100849.31;5567565;32;33803;-59
2023/01/11 07:52:03;;;;;;;13.05;8.93;;;;;;;5.98;77.19;100850.78;5567489;32;34072;-60
2023/01/11 07:55:09;;;;;;;15.05;9.43;;;;;;;6.07;75.67;100848.56;5567603;32;33589;-59
2023/01/11 07:58:11;;;;;;;14.70;8.73;;;;;;;6.07;75.68;100844.03;5567362;32;33672;-59
2023/01/11 08:01:14;;;;;;;12.73;8.88;;;;;;;6.25;74.50;100837.69;5567632;32;34183;-60
2023/01/11 08:04:16;;;;;;;13.60;8.27;;;;;;;6.22;75.59;100851.47;5567427;31;33559;-60
2023/01/11 08:07:18;;;;;;;14.32;9.07;;;;;;;6.24;81.02;100846.75;5567019;32;33699;-59
2023/01/11 08:10:21;;;;;;;11.98;8.25;;;;;;;6.23;77.22;100847.00;5567223;32;33734;-60
2023/01/11 08:16:45;;;;;;;14.57;8.40;;;;;;;6.36;79.60;100854.69;5565418;32;34075;-60
2023/01/11 08:19:47;;;;;;;12.63;8.45;;;;;;;6.44;74.90;100861.47;5547915;32;34057;-60
2023/01/11 08:22:49;;;;;;;14.90;8.15;;;;;;;6.37;74.92;100864.28;5548042;32;33778;-60
2023/01/11 08:25:55;;;;;;;9.18;7.00;;;;;;;6.51;77.43;100862.09;5547691;32;33879;-59
2023/01/11 08:28:58;;;;;;;11.70;7.07;;;;;;;6.48;74.13;100866.06;5547976;32;34382;-59
2023/01/11 08:32:01;;;;;;;15.13;7.97;;;;;;;6.50;79.34;100876.47;5547674;32;33660;-60
2023/01/11 08:35:04;;;;;;;11.80;7.65;;;;;;;6.32;77.34;100869.50;5554102;32;33249;-59
2023/01/11 08:38:07;;;;;;;12.00;7.20;;;;;;;6.40;76.00;100886.97;5567346;32;34486;-60
2023/01/11 08:41:09;;;;;;;12.25;7.75;;;;;;;6.37;75.71;100882.91;5566989;32;33625;-60
2023/01/11 08:44:12;;;;;;;13.00;7.75;;;;;;;6.35;75.70;100880.47;5565741;32;34362;-59
2023/01/11 08:47:16;;;;;;;14.70;8.60;;;;;;;6.36;79.93;100886.62;5567164;32;33536;-59
2023/01/11 08:50:20;;;;;;;11.73;8.60;;;;;;;6.50;76.11;100865.81;5567257;32;34343;-59
2023/01/11 08:53:24;;;;;;;15.10;8.35;;;;;;;6.61;75.70;100869.47;5566817;32;34304;-60
2023/01/11 08:56:26;;;;;;;14.73;9.18;;;;;;;6.54;75.17;100881.06;5560436;32;34375;-59
2023/01/11 08:59:28;;;;;;;19.00;9.23;;;;;;;6.59;80.01;100875.84;5547283;32;33596;-60
2023/01/11 09:02:30;;;;;;;12.43;8.35;;;;;;;6.70;76.27;100873.34;5547322;32;34334;-59
2023/01/11 09:05:33;;;;;;;14.02;8.35;;;;;;;6.81;75.00;100878.56;5547135;32;34541;-59
2023/01/11 09:08:35;;;;;;;11.40;8.10;;;;;;;6.77;75.17;100885.44;5547005;32;33640;-60
2023/01/11 09:11:53;;;;;;;14.05;7.50;;;;;;;6.77;78.35;100882.78;5547175;32;33582;-60
2023/01/11 09:14:55;;;;;;;20.58;8.65;;;;;;;6.97;84.80;100879.62;5547105;32;33223;-60
2023/01/11 09:17:58;;;;;;;14.20;8.52;;;;;;;7.05;74.13;100878.41;5546852;32;33594;-60
2023/01/11 09:21:00;;;;;;;10.10;7.60;;;;;;;7.14;73.65;100879.59;5546956;32;33747;-59
2023/01/11 09:24:03;;;;;;;12.02;7.30;;;;;;;7.22;84.04;100883.72;5546927;32;33656;-60
2023/01/11 09:27:06;;;;;;;11.52;7.65;;;;;;;7.40;72.75;100890.63;5556345;32;33753;-59
2023/01/11 09:30:10;;;;;;;11.07;7.85;;;;;;;7.46;70.99;100876.31;5566050;32;33589;-60
2023/01/11 09:33:12;;;;;;;12.13;7.75;;;;;;;7.50;69.96;100875.56;5566326;32;33161;-60
2023/01/11 09:36:17;;;;;;;13.15;7.50;;;;;;;7.62;69.56;100871.97;5566014;32;34497;-60
2023/01/11 09:39:23;;;;;;;13.02;7.93;;;;;;;7.66;74.28;100870.44;5564739;32;33688;-59
2023/01/11 09:42:35;;;;;;;10.13;7.62;;;;;;;7.80;70.08;100873.53;5552486;32;34287;-59
2023/01/11 09:45:45;;;;;;;11.95;7.95;;;;;;;8.00;73.09;100868.41;5548743;32;33893;-60
2023/01/11 09:48:57;;;;;;;18.48;7.60;;;;;;;8.06;71.74;100866.59;5555707;32;33714;-59
2023/01/11 09:52:19;;;;;;;11.95;7.78;;;;;;;8.18;70.11;100869.94;5568597;32;33426;-60
2023/01/11 09:55:35;;;;;;;13.60;8.02;;;;;;;8.37;67.14;100862.34;5568245;32;34015;-59
2023/01/11 09:58:47;;;;;;;10.18;7.03;;;;;;;8.29;66.29;100854.81;5567116;32;33923;-60
2023/01/11 10:02:06;;;;;;;11.95;7.05;;;;;;;8.37;66.26;100859.69;5562772;32;35901;-60
2023/01/11 10:05:20;;;;;;;12.00;7.10;;;;;;;8.46;64.23;100844.84;5563838;31;33413;-59
2023/01/11 10:08:37;;;;;;;12.35;6.43;;;;;;;8.56;66.12;100841.44;5554317;32;33504;-60
2023/01/11 10:12:30;;;;;;;8.73;6.68;;;;;;;8.64;63.48;100839.12;5566558;32;33645;-60
2023/01/11 10:16:23;;;;;;;8.57;5.32;;;;;;;8.89;63.57;100826.97;5561719;32;35028;-59
2023/01/11 10:19:56;;;;;;;8.25;5.10;;;;;;;8.99;67.56;100821.69;5566904;32;34224;-59
2023/01/11 10:23:07;;;;;;;6.65;3.70;;;;;;;9.35;75.66;100825.38;5564388;32;33654;-59
2023/01/11 10:26:23;;;;;;;4.78;3.60;;;;;;;9.10;59.10;100820.69;5562915;32;33286;-59
2023/01/11 10:29:56;;;;;;;6.53;3.75;;;;;;;9.18;62.74;100820.19;5562186;32;34391;-59
2023/01/11 10:33:24;;;;;;;6.18;2.78;;;;;;;9.69;64.32;100826.84;5548999;32;34059;-60
2023/01/11 10:43:25;;;;;;;2.75;2.17;;;;;;;9.58;56.19;100828.69;5568680;32;34375;-60
2023/01/11 10:46:30;;;;;;;3.85;2.22;;;;;;;9.56;56.01;100820.09;5567476;32;33739;-60
2023/01/11 10:49:50;;;;;;;4.68;2.40;;;;;;;9.70;57.01;100826.59;5567355;32;33444;-60
2023/01/11 10:53:09;;;;;;;4.18;2.72;;;;;;;9.80;57.78;100836.50;5568393;32;34475;-60
2023/01/11 10:56:30;;;;;;;3.55;2.60;;;;;;;9.74;56.12;100832.22;5568251;32;34112;-59
2023/01/11 10:59:49;;;;;;;4.45;2.90;;;;;;;9.72;58.50;100829.78;5568516;32;34359;-60
2023/01/11 11:03:20;;;;;;;4.60;2.95;;;;;;;9.63;55.57;100826.00;5566498;32;33783;-60
2023/01/11 11:06:38;;;;;;;5.00;2.40;;;;;;;10.06;70.01;100827.44;5561273;32;33337;-60
2023/01/11 11:09:48;;;;;;;5.43;2.53;;;;;;;10.20;56.65;100825.06;5568329;32;34457;-60
2023/01/11 11:13:03;;;;;;;6.07;3.00;;;;;;;10.24;62.18;100826.16;5567332;32;33970;-60
2023/01/11 11:16:21;;;;;;;9.20;2.93;;;;;;;10.37;61.83;100814.13;5567832;31;33614;-60
2023/01/11 11:19:29;;;;;;;4.15;2.87;;;;;;;10.35;67.07;100805.53;5567651;32;33633;-60
2023/01/11 11:22:31;;;;;;;4.05;2.60;;;;;;;9.87;57.04;100795.03;5564499;32;33487;-60
2023/01/11 11:25:40;;;;;;;5.68;3.35;;;;;;;9.77;56.09;100791.53;5567071;32;33283;-59
2023/01/11 11:29:03;;;;;;;4.78;3.12;;;;;;;9.84;62.21;100786.72;5568489;32;34044;-60
2023/01/11 11:32:18;;;;;;;6.60;3.65;;;;;;;10.24;69.75;100788.63;5568351;32;33646;-60
2023/01/11 11:35:35;;;;;;;6.37;2.95;;;;;;;10.27;65.18;100785.44;5567984;32;33837;-59
2023/01/11 11:38:57;;;;;;;4.57;3.15;;;;;;;10.62;79.88;100788.38;5553426;32;33777;-59
2023/01/11 11:42:06;;;;;;;5.85;3.37;;;;;;;10.65;68.54;100785.94;5549285;32;33772;-60
2023/01/11 11:45:08;;;;;;;4.43;3.22;;;;;;;10.76;60.38;100784.88;5560641;32;33564;-59
2023/01/11 11:48:10;;;;;;;5.07;3.25;;;;;;;10.36;57.28;100780.34;5568479;32;34297;-60
2023/01/11 11:51:21;;;;;;;4.53;3.08;;;;;;;10.38;55.80;100783.56;5567692;32;33944;-59
2023/01/11 11:54:27;;;;;;;4.07;3.30;;;;;;;10.50;76.93;100784.09;5547781;32;33661;-60
2023/01/11 11:57:41;;;;;;;6.50;3.67;;;;;;;10.79;66.97;100789.69;5549375;32;33641;-59
2023/01/11 12:00:46;;;;;;;4.87;3.35;;;;;;;11.02;80.17;100782.13;5566639;32;33633;-60
2023/01/11 12:03:58;;;;;;;6.53;3.47;;;;;;;10.77;64.50;100783.00;5566519;32;34405;-60
2023/01/11 12:07:14;;;;;;;6.87;4.10;;;;;;;10.47;58.95;100787.31;5552406;32;33603;-59
2023/01/11 12:10:19;;;;;;;5.80;3.95;;;;;;;10.73;69.32;100789.97;5567861;32;34036;-59
2023/01/11 12:13:41;;;;;;;7.32;4.05;;;;;;;10.84;68.85;100791.56;5567693;32;34343;-60
2023/01/11 12:16:44;;;;;;;5.07;3.53;;;;;;;10.91;58.97;100781.34;5567773;32;33747;-60
2023/01/11 12:19:47;;;;;;;7.47;4.22;;;;;;;11.16;66.58;100782.34;5567640;32;34478;-60
2023/01/11 12:23:09;;;;;;;6.47;4.45;;;;;;;11.11;69.24;100782.37;5568043;32;34304;-60
2023/01/11 12:26:20;;;;;;;6.40;4.35;;;;;;;11.22;61.92;100792.78;5568313;32;33850;-59
2023/01/11 12:29:32;;;;;;;6.37;4.40;;;;;;;11.28;73.86;100788.19;5549769;32;33866;-59
2023/01/11 12:32:49;;;;;;;6.28;4.05;;;;;;;11.27;61.67;100790.09;5567417;32;33639;-60
2023/01/11 12:36:08;;;;;;;6.82;4.25;;;;;;;11.02;60.08;100796.31;5567812;31;34747;-60
2023/01/11 12:39:34;;;;;;;6.40;4.10;;;;;;;10.72;55.89;100791.03;5567425;32;33724;-60
2023/01/11 12:42:55;;;;;;;6.75;4.60;;;;;;;10.91;73.01;100808.16;5568017;32;33777;-60
2023/01/11 12:46:09;;;;;;;5.85;3.97;;;;;;;10.83;55.49;100795.31;5567764;32;34414;-60
2023/01/11 12:49:32;;;;;;;6.53;4.25;;;;;;;10.67;55.55;100791.84;5566977;32;33734;-59
2023/01/11 12:52:55;;;;;;;6.22;3.97;;;;;;;10.56;58.94;100803.66;5566845;32;33553;-59
2023/01/11 12:56:31;;;;;;;11.07;5.15;;;;;;;10.50;55.66;100796.72;5564076;32;33755;-60
2023/01/11 13:00:00;;;;;;;7.20;5.00;;;;;;;10.44;60.41;100798.56;5563420;32;34392;-60
2023/01/11 13:03:34;;;;;;;7.40;4.95;;;;;;;10.40;61.76;100791.31;5560992;32;33223;-60
2023/01/11 13:06:43;;;;;;;10.63;5.53;;;;;;;10.40;60.77;100777.94;5566064;32;34321;-60
2023/01/11 13:09:49;;;;;;;8.68;4.90;;;;;;;10.35;60.24;100779.53;5560942;32;34786;-60
2023/01/11 13:12:59;;;;;;;8.65;4.68;;;;;;;10.26;58.85;100780.34;5563465;32;33870;-60
2023/01/11 13:16:15;;;;;;;8.18;4.72;;;;;;;10.32;57.46;100790.00;5567055;32;33740;-60
2023/01/11 13:19:25;;;;;;;7.50;4.75;;;;;;;10.29;60.93;100785.97;5564465;32;33358;-59
2023/01/11 13:22:33;;;;;;;7.50;4.82;;;;;;;10.22;59.39;100785.41;5569317;32;34441;-60
2023/01/11 13:25:40;;;;;;;7.72;5.10;;;;;;;10.23;60.11;100787.03;5569641;32;34343;-60
2023/01/11 13:28:48;;;;;;;9.25;5.53;;;;;;;10.25;62.74;100795.59;5567688;32;33712;-60
2023/01/11 13:31:53;;;;;;;8.27;5.32;;;;;;;10.18;59.86;100794.25;5564763;32;33945;-59
2023/01/11 13:35:17;;;;;;;7.93;5.03;;;;;;;10.19;61.39;100802.00;5567256;32;34426;-59
2023/01/11 13:38:39;;;;;;;10.27;5.18;;;;;;;10.26;65.21;100799.91;5569311;32;33108;-60
2023/01/11 13:41:49;;;;;;;10.13;5.32;;;;;;;10.19;60.64;100804.69;5555949;32;33754;-60
2023/01/11 13:44:59;;;;;;;13.30;5.53;;;;;;;10.15;64.42;100806.31;5557102;32;34378;-59
2023/01/11 13:48:15;;;;;;;9.75;5.70;;;;;;;10.18;67.02;100810.34;5551742;32;33812;-59
2023/01/11 13:51:50;;;;;;;7.57;5.18;;;;;;;10.14;61.64;100798.53;5568191;32;33443;-60
2023/01/11 13:55:00;;;;;;;8.50;5.20;;;;;;;10.17;61.53;100792.66;5569727;32;33235;-59
2023/01/11 13:58:15;;;;;;;13.00;5.75;;;;;;;10.15;63.11;100800.94;5569029;32;33701;-60
2023/01/11 14:01:50;;;;;;;7.70;4.62;;;;;;;10.15;61.14;100810.88;5569253;32;34162;-60
2023/01/11 14:05:14;;;;;;;11.52;5.70;;;;;;;10.17;71.19;100809.53;5547061;31;33482;-60
2023/01/11 14:08:40;;;;;;;10.75;6.12;;;;;;;10.15;62.41;100810.88;5550711;32;33651;-59
2023/01/11 14:11:57;;;;;;;14.30;7.40;;;;;;;10.16;73.23;100807.91;5549668;32;33571;-60
2023/01/11 14:15:11;;;;;;;8.88;5.55;;;;;;;10.18;65.64;100804.97;5566236;32;34322;-59
2023/01/11 14:18:42;;;;;;;7.20;4.82;;;;;;;10.08;62.41;100805.75;5566833;32;33691;-60
2023/01/11 14:21:58;;;;;;;10.23;5.35;;;;;;;10.11;68.01;100807.91;5563509;32;33326;-60
2023/01/11 14:25:26;;;;;;;8.27;5.62;;;;;;;10.02;62.74;100796.13;5569161;32;33743;-60
2023/01/11 14:28:50;;;;;;;10.52;5.55;;;;;;;9.99;64.48;100794.75;5568479;32;34405;-59
2023/01/11 14:32:19;;;;;;;10.27;5.18;;;;;;;9.99;63.74;100796.63;5569471;32;33848;-60
2023/01/11 14:35:50;;;;;;;12.70;5.20;;;;;;;10.02;63.51;100796.13;5568767;32;33908;-59
2023/01/11 14:39:43;;;;;;;10.82;4.60;;;;;;;10.10;76.01;100801.75;5567525;32;33882;-60
2023/01/11 14:43:11;;;;;;;7.87;5.07;;;;;;;10.08;66.72;100795.84;5549707;31;33591;-59
2023/01/11 14:46:35;;;;;;;8.38;5.10;;;;;;;10.10;62.71;100799.06;5569187;32;34347;-60
2023/01/11 14:50:06;;;;;;;10.35;6.03;;;;;;;10.09;66.55;100797.44;5552176;32;33196;-59
2023/01/11 14:53:16;;;;;;;7.50;4.90;;;;;;;9.93;62.12;100795.03;5549867;32;34358;-59
2023/01/11 14:56:43;;;;;;;10.63;5.70;;;;;;;9.94;60.86;100789.41;5559751;32;33708;-59
2023/01/11 14:59:45;;;;;;;12.50;5.87;;;;;;;9.90;63.34;100785.66;5556675;32;34344;-59
2023/01/11 15:03:00;;;;;;;9.20;6.05;;;;;;;9.75;69.30;100783.75;5549598;32;33654;-59
2023/01/11 15:06:15;;;;;;;9.43;5.72;;;;;;;9.62;66.24;100784.25;5552548;32;33607;-60
2023/01/11 15:09:47;;;;;;;14.27;7.00;;;;;;;9.49;70.66;100792.78;5550883;32;33971;-60
2023/01/11 15:12:55;;;;;;;20.08;13.48;;;;;;;9.46;70.52;100788.75;5568122;32;33721;-59
2023/01/11 15:19:33;;;;;;;16.95;9.73;;;;;;;9.39;64.91;100793.53;5562740;32;33877;-60
2023/01/11 15:22:35;;;;;;;21.12;11.57;;;;;;;9.27;70.54;100795.63;5569255;32;33664;-59
2023/01/11 15:25:38;;;;;;;16.67;10.48;;;;;;;9.24;68.88;100799.66;5568582;32;33680;-60
2023/01/11 15:28:59;;;;;;;17.23;9.52;;;;;;;9.23;67.03;100803.37;5569134;32;33730;-59
2023/01/11 15:32:06;;;;;;;16.35;9.52;;;;;;;9.16;67.45;100808.16;5568096;32;32992;-59
2023/01/11 15:35:23;;;;;;;13.40;8.85;;;;;;;9.02;67.68;100802.47;5567325;32;33447;-60
2023/01/11 15:38:29;;;;;;;14.70;9.13;;;;;;;8.90;67.55;100807.19;5569321;32;34372;-59
2023/01/11 15:42:03;;;;;;;14.32;9.77;;;;;;;8.87;66.49;100797.84;5568248;32;34341;-60
2023/01/11 15:45:17;;;;;;;15.68;8.70;;;;;;;8.83;66.83;100801.28;5569115;32;34081;-60
2023/01/11 15:48:50;;;;;;;15.30;9.45;;;;;;;8.88;66.48;100799.44;5569355;32;33760;-59
2023/01/11 15:52:07;;;;;;;16.33;9.27;;;;;;;8.86;66.15;100792.75;5567769;32;33657;-60
2023/01/11 15:55:47;;;;;;;16.92;8.05;;;;;;;8.75;68.36;100791.88;5567587;32;33851;-60
2023/01/11 15:59:04;;;;;;;17.45;11.40;;;;;;;8.70;78.29;100805.19;5566636;32;34333;-60
2023/01/11 16:02:44;;;;;;;23.75;15.52;;;;;;;8.49;78.92;100809.59;5568793;32;33810;-60
2023/01/11 16:05:58;;;;;;;18.42;12.98;;;;;;;8.40;69.59;100813.78;5553309;31;33652;-60
2023/01/11 16:09:36;;;;;;;18.80;13.10;;;;;;;8.30;70.50;100809.13;5569206;32;34044;-59
2023/01/11 16:13:16;;;;;;;17.55;9.70;;;;;;;8.31;68.95;100807.25;5563068;32;34364;-60
2023/01/11 16:16:28;;;;;;;20.50;10.98;;;;;;;8.46;67.29;100802.09;5569309;32;33973;-60
2023/01/11 16:19:34;;;;;;;18.75;11.00;;;;;;;8.45;67.06;100798.63;5568713;32;34549;-60
2023/01/11 16:22:37;;;;;;;16.98;11.23;;;;;;;8.32;73.01;100798.22;5568837;32;33827;-60
2023/01/11 16:25:41;;;;;;;16.17;11.57;;;;;;;8.18;70.87;100805.84;5568619;32;33815;-60
2023/01/11 16:28:49;;;;;;;15.93;10.40;;;;;;;8.02;73.82;100802.22;5568872;32;33684;-59
2023/01/11 16:31:57;;;;;;;15.32;9.85;;;;;;;7.91;79.51;100793.31;5568323;32;33921;-59
2023/01/11 16:35:01;;;;;;;17.52;10.55;;;;;;;7.78;72.10;100788.34;5568702;32;33813;-60
2023/01/11 16:38:05;;;;;;;18.73;10.63;;;;;;;7.80;70.96;100788.91;5568899;32;34455;-60
2023/01/11 16:41:11;;;;;;;22.83;11.73;;;;;;;7.99;69.50;100800.84;5568523;32;34289;-60
2023/01/11 16:44:22;;;;;;;20.98;10.80;;;;;;;8.05;68.68;100795.56;5568618;32;33621;-59
2023/01/11 16:47:24;;;;;;;14.87;10.85;;;;;;;7.83;83.03;100798.28;5568782;32;34250;-59
2023/01/11 16:50:27;;;;;;;19.37;11.90;;;;;;;7.62;72.52;100798.06;5566212;32;33566;-60
